LBSF/SOF METAR and TAF weather

Enter ICAO airport designator
Station Type Date Time Source
LBSF METAR 2019/12/14 11:00 UTC NOAA

LBSF 141100Z 14006KT 110V190 9999 SCT018 BKN023 08/05 Q0999 NOSIG


Station Type Date Time Source
LBSF Decoded METAR 2019/12/14 11:00 UTC NOAA

Sofia Observ. , Bulgaria (LBSF) 42-39N 023-23E 595M
Dec 14, 2019 - 06:00 AM EST / 2019.12.14 1100 UTC
Wind: from the SE (140 degrees) at 7 MPH (6 KT) (direction variable):0
Visibility: greater than 7 mile(s):0
Sky conditions: mostly cloudy
Temperature: 46 F (8 C)
Dew Point: 41 F (5 C)
Relative Humidity: 81%
Pressure (altimeter): 29.50 in. Hg (0999 hPa)
ob: LBSF 141100Z 14006KT 110V190 9999 SCT018 BKN023 08/05 Q0999 NOSIG
cycle: 11

Station Type Date Time Source
LBSF TAF 2019/12/14 12:18 UTC NOAA

TAF LBSF 141100Z 1412/1512 12010KT 9999 SCT020 BKN030 PROB30
TEMPO 1412/1416 5000 RA SCT010 OVC030
BECMG 1416/1418 VRB04KT 7000 SCT010 BKN020
TEMPO 1418/1506 3000 BR SCT006
BECMG 1507/1509 SCT030 SCT050

Example: see airport list